sensor_id;sensor_type;location;lat;lon;timestamp;P1;durP1;ratioP1;P2;durP2;ratioP2
31754;SDS011;18325;52.018;4.726;2023-04-23T00:00:50;54.10;;;21.93;;
31754;SDS011;18325;52.018;4.726;2023-04-23T00:03:18;42.53;;;20.60;;
31754;SDS011;18325;52.018;4.726;2023-04-23T00:05:46;47.00;;;20.47;;
31754;SDS011;18325;52.018;4.726;2023-04-23T00:08:14;50.83;;;21.97;;
31754;SDS011;18325;52.018;4.726;2023-04-23T00:10:43;41.67;;;19.23;;
31754;SDS011;18325;52.018;4.726;2023-04-23T00:13:11;44.40;;;20.13;;
31754;SDS011;18325;52.018;4.726;2023-04-23T00:15:38;47.30;;;21.60;;
31754;SDS011;18325;52.018;4.726;2023-04-23T00:18:05;45.07;;;22.67;;
31754;SDS011;18325;52.018;4.726;2023-04-23T00:20:32;45.13;;;20.30;;
31754;SDS011;18325;52.018;4.726;2023-04-23T00:22:59;41.77;;;21.50;;
31754;SDS011;18325;52.018;4.726;2023-04-23T00:25:26;46.30;;;21.60;;
31754;SDS011;18325;52.018;4.726;2023-04-23T00:27:52;46.33;;;21.57;;
31754;SDS011;18325;52.018;4.726;2023-04-23T00:30:20;50.03;;;23.27;;
31754;SDS011;18325;52.018;4.726;2023-04-23T00:32:47;43.27;;;20.03;;
31754;SDS011;18325;52.018;4.726;2023-04-23T00:35:13;43.17;;;21.53;;
31754;SDS011;18325;52.018;4.726;2023-04-23T00:37:40;46.60;;;20.83;;
31754;SDS011;18325;52.018;4.726;2023-04-23T00:40:06;48.53;;;21.93;;
31754;SDS011;18325;52.018;4.726;2023-04-23T00:42:34;43.03;;;20.93;;
31754;SDS011;18325;52.018;4.726;2023-04-23T00:45:01;46.17;;;20.70;;
31754;SDS011;18325;52.018;4.726;2023-04-23T00:47:29;47.03;;;20.07;;
31754;SDS011;18325;52.018;4.726;2023-04-23T00:49:56;47.57;;;22.03;;
31754;SDS011;18325;52.018;4.726;2023-04-23T00:52:24;50.70;;;21.77;;
31754;SDS011;18325;52.018;4.726;2023-04-23T00:54:50;43.37;;;21.60;;
31754;SDS011;18325;52.018;4.726;2023-04-23T00:57:17;45.50;;;19.93;;
31754;SDS011;18325;52.018;4.726;2023-04-23T00:59:43;47.77;;;21.40;;
31754;SDS011;18325;52.018;4.726;2023-04-23T01:02:10;41.67;;;19.83;;
31754;SDS011;18325;52.018;4.726;2023-04-23T01:04:38;43.67;;;20.43;;
31754;SDS011;18325;52.018;4.726;2023-04-23T01:07:06;45.53;;;19.90;;
31754;SDS011;18325;52.018;4.726;2023-04-23T01:09:32;44.50;;;20.43;;
31754;SDS011;18325;52.018;4.726;2023-04-23T01:11:59;42.97;;;19.60;;
31754;SDS011;18325;52.018;4.726;2023-04-23T01:14:27;50.33;;;22.07;;
31754;SDS011;18325;52.018;4.726;2023-04-23T01:16:54;48.57;;;21.60;;
31754;SDS011;18325;52.018;4.726;2023-04-23T01:19:20;42.90;;;20.97;;
31754;SDS011;18325;52.018;4.726;2023-04-23T01:21:48;53.07;;;21.77;;
31754;SDS011;18325;52.018;4.726;2023-04-23T01:24:16;42.70;;;21.03;;
31754;SDS011;18325;52.018;4.726;2023-04-23T01:26:43;49.67;;;22.07;;
31754;SDS011;18325;52.018;4.726;2023-04-23T01:29:09;52.30;;;22.20;;
31754;SDS011;18325;52.018;4.726;2023-04-23T01:31:36;42.93;;;20.63;;
31754;SDS011;18325;52.018;4.726;2023-04-23T01:34:02;50.67;;;21.13;;
31754;SDS011;18325;52.018;4.726;2023-04-23T01:36:29;41.47;;;20.93;;
31754;SDS011;18325;52.018;4.726;2023-04-23T01:38:56;40.90;;;20.50;;
31754;SDS011;18325;52.018;4.726;2023-04-23T01:41:24;36.00;;;17.67;;
31754;SDS011;18325;52.018;4.726;2023-04-23T01:43:50;47.47;;;20.70;;
31754;SDS011;18325;52.018;4.726;2023-04-23T01:46:17;39.67;;;19.83;;
31754;SDS011;18325;52.018;4.726;2023-04-23T01:48:44;41.80;;;19.07;;
31754;SDS011;18325;52.018;4.726;2023-04-23T01:51:10;44.53;;;18.17;;
31754;SDS011;18325;52.018;4.726;2023-04-23T01:53:36;40.20;;;19.43;;
31754;SDS011;18325;52.018;4.726;2023-04-23T01:56:03;39.10;;;19.20;;
31754;SDS011;18325;52.018;4.726;2023-04-23T01:58:31;39.77;;;18.30;;
31754;SDS011;18325;52.018;4.726;2023-04-23T02:00:58;41.67;;;18.10;;
31754;SDS011;18325;52.018;4.726;2023-04-23T02:03:24;32.93;;;17.87;;
31754;SDS011;18325;52.018;4.726;2023-04-23T02:05:51;31.10;;;17.33;;
31754;SDS011;18325;52.018;4.726;2023-04-23T02:08:19;38.10;;;17.07;;
31754;SDS011;18325;52.018;4.726;2023-04-23T02:10:45;41.23;;;18.80;;
31754;SDS011;18325;52.018;4.726;2023-04-23T02:13:12;33.63;;;17.73;;
31754;SDS011;18325;52.018;4.726;2023-04-23T02:15:40;36.50;;;17.03;;
31754;SDS011;18325;52.018;4.726;2023-04-23T02:18:07;36.83;;;16.17;;
31754;SDS011;18325;52.018;4.726;2023-04-23T02:20:33;31.33;;;15.67;;
31754;SDS011;18325;52.018;4.726;2023-04-23T02:23:02;34.87;;;16.73;;
31754;SDS011;18325;52.018;4.726;2023-04-23T02:25:30;29.73;;;15.73;;
31754;SDS011;18325;52.018;4.726;2023-04-23T02:27:57;31.67;;;15.87;;
31754;SDS011;18325;52.018;4.726;2023-04-23T02:30:24;34.13;;;16.10;;
31754;SDS011;18325;52.018;4.726;2023-04-23T02:32:51;31.50;;;16.63;;
31754;SDS011;18325;52.018;4.726;2023-04-23T02:35:18;32.57;;;15.63;;
31754;SDS011;18325;52.018;4.726;2023-04-23T02:37:45;29.37;;;15.43;;
31754;SDS011;18325;52.018;4.726;2023-04-23T02:40:11;34.00;;;16.03;;
31754;SDS011;18325;52.018;4.726;2023-04-23T02:42:37;31.43;;;15.70;;
31754;SDS011;18325;52.018;4.726;2023-04-23T02:45:04;31.90;;;15.37;;
31754;SDS011;18325;52.018;4.726;2023-04-23T02:47:32;29.17;;;15.00;;
31754;SDS011;18325;52.018;4.726;2023-04-23T02:50:00;27.53;;;14.47;;
31754;SDS011;18325;52.018;4.726;2023-04-23T02:52:29;37.80;;;16.37;;
31754;SDS011;18325;52.018;4.726;2023-04-23T02:54:56;29.17;;;15.70;;
31754;SDS011;18325;52.018;4.726;2023-04-23T02:57:22;31.63;;;15.53;;
31754;SDS011;18325;52.018;4.726;2023-04-23T02:59:49;32.07;;;14.57;;
31754;SDS011;18325;52.018;4.726;2023-04-23T03:02:15;23.03;;;13.27;;
31754;SDS011;18325;52.018;4.726;2023-04-23T03:04:42;27.43;;;13.13;;
31754;SDS011;18325;52.018;4.726;2023-04-23T03:07:10;29.50;;;14.23;;
31754;SDS011;18325;52.018;4.726;2023-04-23T03:09:37;27.07;;;14.07;;
31754;SDS011;18325;52.018;4.726;2023-04-23T03:12:03;29.97;;;15.37;;
31754;SDS011;18325;52.018;4.726;2023-04-23T03:14:30;27.37;;;13.77;;
31754;SDS011;18325;52.018;4.726;2023-04-23T03:16:56;29.67;;;14.20;;
31754;SDS011;18325;52.018;4.726;2023-04-23T03:19:23;26.13;;;12.53;;
31754;SDS011;18325;52.018;4.726;2023-04-23T03:21:49;29.63;;;14.27;;
31754;SDS011;18325;52.018;4.726;2023-04-23T03:24:17;23.43;;;13.67;;
31754;SDS011;18325;52.018;4.726;2023-04-23T03:26:43;26.40;;;14.23;;
31754;SDS011;18325;52.018;4.726;2023-04-23T03:29:10;23.37;;;12.30;;
31754;SDS011;18325;52.018;4.726;2023-04-23T03:31:36;25.57;;;12.90;;
31754;SDS011;18325;52.018;4.726;2023-04-23T03:34:02;24.27;;;12.63;;
31754;SDS011;18325;52.018;4.726;2023-04-23T03:36:29;24.97;;;13.13;;
31754;SDS011;18325;52.018;4.726;2023-04-23T03:38:56;24.43;;;13.20;;
31754;SDS011;18325;52.018;4.726;2023-04-23T03:41:24;26.73;;;13.77;;
31754;SDS011;18325;52.018;4.726;2023-04-23T03:43:50;24.93;;;13.17;;
31754;SDS011;18325;52.018;4.726;2023-04-23T03:46:16;24.43;;;13.27;;
31754;SDS011;18325;52.018;4.726;2023-04-23T03:48:43;21.57;;;12.60;;
31754;SDS011;18325;52.018;4.726;2023-04-23T03:51:09;23.40;;;11.87;;
31754;SDS011;18325;52.018;4.726;2023-04-23T03:53:35;22.93;;;13.00;;
31754;SDS011;18325;52.018;4.726;2023-04-23T03:56:02;23.93;;;12.87;;
31754;SDS011;18325;52.018;4.726;2023-04-23T03:58:30;23.07;;;12.13;;
31754;SDS011;18325;52.018;4.726;2023-04-23T04:00:56;23.20;;;13.07;;
31754;SDS011;18325;52.018;4.726;2023-04-23T04:03:22;21.83;;;11.43;;
31754;SDS011;18325;52.018;4.726;2023-04-23T04:05:49;22.37;;;12.57;;
31754;SDS011;18325;52.018;4.726;2023-04-23T04:08:16;23.27;;;13.43;;
31754;SDS011;18325;52.018;4.726;2023-04-23T04:10:42;23.93;;;12.97;;
31754;SDS011;18325;52.018;4.726;2023-04-23T04:13:09;24.93;;;12.93;;
31754;SDS011;18325;52.018;4.726;2023-04-23T04:15:36;22.57;;;11.67;;
31754;SDS011;18325;52.018;4.726;2023-04-23T04:18:03;21.97;;;12.30;;
31754;SDS011;18325;52.018;4.726;2023-04-23T04:20:29;19.97;;;12.10;;
31754;SDS011;18325;52.018;4.726;2023-04-23T04:22:56;20.77;;;11.63;;
31754;SDS011;18325;52.018;4.726;2023-04-23T04:25:22;21.23;;;12.87;;
31754;SDS011;18325;52.018;4.726;2023-04-23T04:27:49;20.43;;;13.17;;
31754;SDS011;18325;52.018;4.726;2023-04-23T04:30:15;25.77;;;14.33;;
31754;SDS011;18325;52.018;4.726;2023-04-23T04:32:43;26.87;;;14.17;;
31754;SDS011;18325;52.018;4.726;2023-04-23T04:35:11;23.07;;;12.83;;
31754;SDS011;18325;52.018;4.726;2023-04-23T04:37:38;22.60;;;12.27;;
31754;SDS011;18325;52.018;4.726;2023-04-23T04:40:05;28.33;;;13.90;;
31754;SDS011;18325;52.018;4.726;2023-04-23T04:42:32;27.40;;;13.57;;
31754;SDS011;18325;52.018;4.726;2023-04-23T04:44:58;23.30;;;11.53;;
31754;SDS011;18325;52.018;4.726;2023-04-23T04:47:25;21.53;;;12.33;;
31754;SDS011;18325;52.018;4.726;2023-04-23T04:49:53;24.37;;;12.47;;
31754;SDS011;18325;52.018;4.726;2023-04-23T04:52:21;23.27;;;12.73;;
31754;SDS011;18325;52.018;4.726;2023-04-23T04:54:48;21.90;;;12.27;;
31754;SDS011;18325;52.018;4.726;2023-04-23T04:57:14;23.13;;;13.00;;
31754;SDS011;18325;52.018;4.726;2023-04-23T04:59:40;22.93;;;12.17;;
31754;SDS011;18325;52.018;4.726;2023-04-23T05:02:07;25.00;;;12.97;;
31754;SDS011;18325;52.018;4.726;2023-04-23T05:04:33;23.77;;;12.57;;
31754;SDS011;18325;52.018;4.726;2023-04-23T05:07:01;24.63;;;12.83;;
31754;SDS011;18325;52.018;4.726;2023-04-23T05:09:27;23.17;;;12.27;;
31754;SDS011;18325;52.018;4.726;2023-04-23T05:11:54;24.03;;;12.50;;
31754;SDS011;18325;52.018;4.726;2023-04-23T05:14:20;25.00;;;12.70;;
31754;SDS011;18325;52.018;4.726;2023-04-23T05:16:47;26.67;;;13.67;;
31754;SDS011;18325;52.018;4.726;2023-04-23T05:19:13;21.63;;;11.83;;
31754;SDS011;18325;52.018;4.726;2023-04-23T05:21:40;25.97;;;13.00;;
31754;SDS011;18325;52.018;4.726;2023-04-23T05:24:08;28.53;;;13.07;;
31754;SDS011;18325;52.018;4.726;2023-04-23T05:26:34;23.27;;;13.40;;
31754;SDS011;18325;52.018;4.726;2023-04-23T05:29:00;25.30;;;13.83;;
31754;SDS011;18325;52.018;4.726;2023-04-23T05:31:28;24.17;;;12.40;;
31754;SDS011;18325;52.018;4.726;2023-04-23T05:33:54;24.90;;;13.33;;
31754;SDS011;18325;52.018;4.726;2023-04-23T05:36:20;23.60;;;13.00;;
31754;SDS011;18325;52.018;4.726;2023-04-23T05:38:47;25.23;;;13.30;;
31754;SDS011;18325;52.018;4.726;2023-04-23T05:41:14;27.23;;;13.60;;
31754;SDS011;18325;52.018;4.726;2023-04-23T05:43:41;22.73;;;11.80;;
31754;SDS011;18325;52.018;4.726;2023-04-23T05:46:07;22.10;;;12.00;;
31754;SDS011;18325;52.018;4.726;2023-04-23T05:48:34;23.57;;;13.50;;
31754;SDS011;18325;52.018;4.726;2023-04-23T05:51:00;24.60;;;14.17;;
31754;SDS011;18325;52.018;4.726;2023-04-23T05:53:28;23.40;;;13.50;;
31754;SDS011;18325;52.018;4.726;2023-04-23T05:55:55;24.17;;;12.77;;
31754;SDS011;18325;52.018;4.726;2023-04-23T05:58:22;21.90;;;12.40;;
31754;SDS011;18325;52.018;4.726;2023-04-23T06:00:49;23.03;;;11.90;;
31754;SDS011;18325;52.018;4.726;2023-04-23T06:03:16;25.63;;;13.33;;
31754;SDS011;18325;52.018;4.726;2023-04-23T06:05:43;25.47;;;13.23;;
31754;SDS011;18325;52.018;4.726;2023-04-23T06:08:09;24.73;;;12.50;;
31754;SDS011;18325;52.018;4.726;2023-04-23T06:10:36;25.83;;;15.27;;
31754;SDS011;18325;52.018;4.726;2023-04-23T06:13:02;25.13;;;13.40;;
31754;SDS011;18325;52.018;4.726;2023-04-23T06:15:30;19.57;;;11.70;;
31754;SDS011;18325;52.018;4.726;2023-04-23T06:17:56;21.80;;;13.23;;
31754;SDS011;18325;52.018;4.726;2023-04-23T06:20:23;21.40;;;12.07;;
31754;SDS011;18325;52.018;4.726;2023-04-23T06:22:50;22.43;;;12.53;;
31754;SDS011;18325;52.018;4.726;2023-04-23T06:25:16;24.77;;;13.23;;
31754;SDS011;18325;52.018;4.726;2023-04-23T06:27:43;27.30;;;13.00;;
31754;SDS011;18325;52.018;4.726;2023-04-23T06:30:09;28.23;;;13.07;;
31754;SDS011;18325;52.018;4.726;2023-04-23T06:32:37;21.27;;;12.53;;
31754;SDS011;18325;52.018;4.726;2023-04-23T06:35:05;22.27;;;12.00;;
31754;SDS011;18325;52.018;4.726;2023-04-23T06:37:32;23.77;;;12.27;;
31754;SDS011;18325;52.018;4.726;2023-04-23T06:39:58;21.37;;;11.47;;
31754;SDS011;18325;52.018;4.726;2023-04-23T06:42:25;20.97;;;12.60;;
31754;SDS011;18325;52.018;4.726;2023-04-23T06:44:51;23.53;;;11.73;;
31754;SDS011;18325;52.018;4.726;2023-04-23T06:47:18;23.73;;;11.73;;
31754;SDS011;18325;52.018;4.726;2023-04-23T06:49:45;20.67;;;11.57;;
31754;SDS011;18325;52.018;4.726;2023-04-23T06:52:12;22.27;;;11.87;;
31754;SDS011;18325;52.018;4.726;2023-04-23T06:54:38;25.10;;;12.60;;
31754;SDS011;18325;52.018;4.726;2023-04-23T06:57:05;23.20;;;13.13;;
31754;SDS011;18325;52.018;4.726;2023-04-23T06:59:31;23.20;;;11.53;;
31754;SDS011;18325;52.018;4.726;2023-04-23T07:01:57;19.10;;;11.03;;
31754;SDS011;18325;52.018;4.726;2023-04-23T07:04:24;20.83;;;10.77;;
31754;SDS011;18325;52.018;4.726;2023-04-23T07:06:52;18.47;;;11.13;;
31754;SDS011;18325;52.018;4.726;2023-04-23T07:09:19;21.50;;;11.90;;
31754;SDS011;18325;52.018;4.726;2023-04-23T07:11:45;21.43;;;10.90;;
31754;SDS011;18325;52.018;4.726;2023-04-23T07:14:12;18.50;;;11.03;;
31754;SDS011;18325;52.018;4.726;2023-04-23T07:16:38;23.03;;;10.40;;
31754;SDS011;18325;52.018;4.726;2023-04-23T07:19:05;15.60;;;9.00;;
31754;SDS011;18325;52.018;4.726;2023-04-23T07:21:31;15.03;;;9.60;;
31754;SDS011;18325;52.018;4.726;2023-04-23T07:23:59;19.77;;;9.67;;
31754;SDS011;18325;52.018;4.726;2023-04-23T07:26:30;16.33;;;9.57;;
31754;SDS011;18325;52.018;4.726;2023-04-23T07:28:57;16.43;;;10.27;;
31754;SDS011;18325;52.018;4.726;2023-04-23T07:31:23;16.57;;;8.67;;
31754;SDS011;18325;52.018;4.726;2023-04-23T07:33:52;15.33;;;8.00;;
31754;SDS011;18325;52.018;4.726;2023-04-23T07:36:19;16.17;;;8.23;;
31754;SDS011;18325;52.018;4.726;2023-04-23T07:38:45;19.57;;;9.00;;
31754;SDS011;18325;52.018;4.726;2023-04-23T07:41:13;9.97;;;6.53;;
31754;SDS011;18325;52.018;4.726;2023-04-23T07:43:40;13.27;;;6.40;;
31754;SDS011;18325;52.018;4.726;2023-04-23T07:46:07;14.00;;;7.67;;
31754;SDS011;18325;52.018;4.726;2023-04-23T07:48:34;13.90;;;6.10;;
31754;SDS011;18325;52.018;4.726;2023-04-23T07:51:00;11.47;;;6.07;;
31754;SDS011;18325;52.018;4.726;2023-04-23T07:53:27;7.47;;;5.20;;
31754;SDS011;18325;52.018;4.726;2023-04-23T07:55:53;14.40;;;5.03;;
31754;SDS011;18325;52.018;4.726;2023-04-23T07:58:23;10.30;;;4.50;;
31754;SDS011;18325;52.018;4.726;2023-04-23T08:00:50;8.53;;;4.80;;
31754;SDS011;18325;52.018;4.726;2023-04-23T08:03:16;10.13;;;4.90;;
31754;SDS011;18325;52.018;4.726;2023-04-23T08:05:42;12.00;;;5.43;;
31754;SDS011;18325;52.018;4.726;2023-04-23T08:08:10;8.47;;;4.63;;
31754;SDS011;18325;52.018;4.726;2023-04-23T08:10:38;11.73;;;4.73;;
31754;SDS011;18325;52.018;4.726;2023-04-23T08:13:05;8.17;;;4.23;;
31754;SDS011;18325;52.018;4.726;2023-04-23T08:15:33;11.00;;;4.83;;
31754;SDS011;18325;52.018;4.726;2023-04-23T08:17:59;9.27;;;4.37;;
31754;SDS011;18325;52.018;4.726;2023-04-23T08:20:26;11.83;;;4.60;;
31754;SDS011;18325;52.018;4.726;2023-04-23T08:22:52;9.73;;;4.40;;
31754;SDS011;18325;52.018;4.726;2023-04-23T08:25:19;7.10;;;4.27;;
31754;SDS011;18325;52.018;4.726;2023-04-23T08:27:46;10.93;;;4.63;;
31754;SDS011;18325;52.018;4.726;2023-04-23T08:30:12;6.43;;;3.90;;
31754;SDS011;18325;52.018;4.726;2023-04-23T08:32:40;8.93;;;4.53;;
31754;SDS011;18325;52.018;4.726;2023-04-23T08:35:07;12.17;;;4.73;;
31754;SDS011;18325;52.018;4.726;2023-04-23T08:37:34;5.63;;;4.10;;
31754;SDS011;18325;52.018;4.726;2023-04-23T08:40:00;6.73;;;3.90;;
31754;SDS011;18325;52.018;4.726;2023-04-23T08:42:29;7.63;;;3.50;;
31754;SDS011;18325;52.018;4.726;2023-04-23T08:45:03;8.23;;;4.93;;
31754;SDS011;18325;52.018;4.726;2023-04-23T08:47:30;5.60;;;3.37;;
31754;SDS011;18325;52.018;4.726;2023-04-23T08:49:58;8.83;;;3.97;;
31754;SDS011;18325;52.018;4.726;2023-04-23T08:52:25;10.20;;;4.50;;
31754;SDS011;18325;52.018;4.726;2023-04-23T08:54:57;11.00;;;4.70;;
31754;SDS011;18325;52.018;4.726;2023-04-23T08:57:26;9.17;;;4.03;;
31754;SDS011;18325;52.018;4.726;2023-04-23T08:59:52;7.47;;;3.70;;
31754;SDS011;18325;52.018;4.726;2023-04-23T09:02:19;7.47;;;3.83;;
31754;SDS011;18325;52.018;4.726;2023-04-23T09:04:46;8.43;;;3.97;;
31754;SDS011;18325;52.018;4.726;2023-04-23T09:07:14;12.33;;;4.07;;
31754;SDS011;18325;52.018;4.726;2023-04-23T09:09:41;7.57;;;3.10;;
31754;SDS011;18325;52.018;4.726;2023-04-23T09:12:08;9.03;;;3.20;;
31754;SDS011;18325;52.018;4.726;2023-04-23T09:14:35;9.43;;;3.10;;
31754;SDS011;18325;52.018;4.726;2023-04-23T09:17:02;6.10;;;2.87;;
31754;SDS011;18325;52.018;4.726;2023-04-23T09:19:28;9.93;;;3.87;;
31754;SDS011;18325;52.018;4.726;2023-04-23T09:21:56;5.77;;;3.33;;
31754;SDS011;18325;52.018;4.726;2023-04-23T09:24:24;9.43;;;4.10;;
31754;SDS011;18325;52.018;4.726;2023-04-23T09:26:51;10.27;;;4.33;;
31754;SDS011;18325;52.018;4.726;2023-04-23T09:29:19;4.90;;;3.40;;
31754;SDS011;18325;52.018;4.726;2023-04-23T09:31:47;5.63;;;3.17;;
31754;SDS011;18325;52.018;4.726;2023-04-23T09:34:15;10.30;;;3.58;;
31754;SDS011;18325;52.018;4.726;2023-04-23T09:36:43;9.47;;;4.13;;
31754;SDS011;18325;52.018;4.726;2023-04-23T09:39:10;9.37;;;4.87;;
31754;SDS011;18325;52.018;4.726;2023-04-23T09:41:39;11.30;;;3.73;;
31754;SDS011;18325;52.018;4.726;2023-04-23T09:44:05;11.50;;;4.83;;
31754;SDS011;18325;52.018;4.726;2023-04-23T09:46:36;9.20;;;4.80;;
31754;SDS011;18325;52.018;4.726;2023-04-23T09:49:05;11.48;;;4.85;;
31754;SDS011;18325;52.018;4.726;2023-04-23T09:51:34;7.53;;;3.93;;
31754;SDS011;18325;52.018;4.726;2023-04-23T09:54:01;6.85;;;3.83;;
31754;SDS011;18325;52.018;4.726;2023-04-23T09:56:28;6.72;;;4.30;;
31754;SDS011;18325;52.018;4.726;2023-04-23T09:58:57;7.97;;;3.75;;
31754;SDS011;18325;52.018;4.726;2023-04-23T10:01:27;8.48;;;3.47;;
31754;SDS011;18325;52.018;4.726;2023-04-23T10:03:54;5.65;;;3.28;;
31754;SDS011;18325;52.018;4.726;2023-04-23T10:06:25;8.82;;;3.40;;
31754;SDS011;18325;52.018;4.726;2023-04-23T10:08:54;6.40;;;3.30;;
31754;SDS011;18325;52.018;4.726;2023-04-23T10:11:21;5.93;;;2.63;;
31754;SDS011;18325;52.018;4.726;2023-04-23T10:13:48;6.90;;;2.70;;
31754;SDS011;18325;52.018;4.726;2023-04-23T10:16:16;4.63;;;2.33;;
31754;SDS011;18325;52.018;4.726;2023-04-23T10:18:43;6.20;;;2.60;;
31754;SDS011;18325;52.018;4.726;2023-04-23T10:21:10;5.00;;;2.30;;
31754;SDS011;18325;52.018;4.726;2023-04-23T10:23:37;7.07;;;2.73;;
31754;SDS011;18325;52.018;4.726;2023-04-23T10:26:05;6.00;;;2.07;;
31754;SDS011;18325;52.018;4.726;2023-04-23T10:28:33;8.13;;;2.30;;
31754;SDS011;18325;52.018;4.726;2023-04-23T10:31:00;11.48;;;2.53;;
31754;SDS011;18325;52.018;4.726;2023-04-23T10:33:29;6.18;;;1.83;;
31754;SDS011;18325;52.018;4.726;2023-04-23T10:35:56;7.10;;;2.05;;
31754;SDS011;18325;52.018;4.726;2023-04-23T10:38:22;3.63;;;1.90;;
31754;SDS011;18325;52.018;4.726;2023-04-23T10:40:52;3.85;;;1.48;;
31754;SDS011;18325;52.018;4.726;2023-04-23T10:43:20;12.83;;;2.17;;
31754;SDS011;18325;52.018;4.726;2023-04-23T10:45:48;5.85;;;1.90;;
31754;SDS011;18325;52.018;4.726;2023-04-23T10:48:14;3.13;;;1.75;;
31754;SDS011;18325;52.018;4.726;2023-04-23T10:50:42;3.47;;;1.63;;
31754;SDS011;18325;52.018;4.726;2023-04-23T10:53:17;4.68;;;1.58;;
31754;SDS011;18325;52.018;4.726;2023-04-23T10:55:45;6.22;;;1.90;;
31754;SDS011;18325;52.018;4.726;2023-04-23T10:58:12;4.63;;;1.63;;
31754;SDS011;18325;52.018;4.726;2023-04-23T11:00:42;4.65;;;2.05;;
31754;SDS011;18325;52.018;4.726;2023-04-23T11:03:26;6.57;;;1.77;;
31754;SDS011;18325;52.018;4.726;2023-04-23T11:05:56;4.87;;;2.07;;
31754;SDS011;18325;52.018;4.726;2023-04-23T11:08:22;5.23;;;1.83;;
31754;SDS011;18325;52.018;4.726;2023-04-23T11:10:56;3.50;;;2.53;;
31754;SDS011;18325;52.018;4.726;2023-04-23T11:13:23;2.60;;;1.93;;
31754;SDS011;18325;52.018;4.726;2023-04-23T11:18:56;5.47;;;2.10;;
31754;SDS011;18325;52.018;4.726;2023-04-23T11:24:24;4.77;;;1.60;;
31754;SDS011;18325;52.018;4.726;2023-04-23T11:26:52;6.43;;;1.77;;
31754;SDS011;18325;52.018;4.726;2023-04-23T11:29:19;3.77;;;1.30;;
31754;SDS011;18325;52.018;4.726;2023-04-23T11:31:46;5.30;;;1.70;;
31754;SDS011;18325;52.018;4.726;2023-04-23T11:34:13;3.10;;;1.70;;
31754;SDS011;18325;52.018;4.726;2023-04-23T11:36:39;4.47;;;1.50;;
31754;SDS011;18325;52.018;4.726;2023-04-23T11:39:06;3.90;;;1.53;;
31754;SDS011;18325;52.018;4.726;2023-04-23T11:44:03;5.80;;;1.30;;
31754;SDS011;18325;52.018;4.726;2023-04-23T11:46:30;4.33;;;1.47;;
31754;SDS011;18325;52.018;4.726;2023-04-23T11:48:58;5.50;;;1.33;;
31754;SDS011;18325;52.018;4.726;2023-04-23T11:51:24;3.83;;;1.37;;
31754;SDS011;18325;52.018;4.726;2023-04-23T11:53:51;4.13;;;1.57;;
31754;SDS011;18325;52.018;4.726;2023-04-23T11:56:18;1.87;;;1.30;;
31754;SDS011;18325;52.018;4.726;2023-04-23T11:58:46;2.90;;;1.30;;
31754;SDS011;18325;52.018;4.726;2023-04-23T12:01:13;2.70;;;1.38;;
31754;SDS011;18325;52.018;4.726;2023-04-23T12:03:39;3.10;;;1.20;;
31754;SDS011;18325;52.018;4.726;2023-04-23T12:06:05;3.03;;;1.63;;
31754;SDS011;18325;52.018;4.726;2023-04-23T12:08:33;2.57;;;1.10;;
31754;SDS011;18325;52.018;4.726;2023-04-23T12:11:00;2.30;;;1.10;;
31754;SDS011;18325;52.018;4.726;2023-04-23T12:13:27;4.73;;;1.77;;
31754;SDS011;18325;52.018;4.726;2023-04-23T12:15:57;3.13;;;1.40;;
31754;SDS011;18325;52.018;4.726;2023-04-23T12:18:28;3.63;;;1.33;;
31754;SDS011;18325;52.018;4.726;2023-04-23T12:20:55;2.13;;;1.37;;
31754;SDS011;18325;52.018;4.726;2023-04-23T12:23:24;3.28;;;1.30;;
31754;SDS011;18325;52.018;4.726;2023-04-23T12:25:52;3.92;;;1.35;;
31754;SDS011;18325;52.018;4.726;2023-04-23T12:28:21;3.93;;;1.00;;
31754;SDS011;18325;52.018;4.726;2023-04-23T12:30:48;6.07;;;1.42;;
31754;SDS011;18325;52.018;4.726;2023-04-23T12:33:16;3.57;;;1.23;;
31754;SDS011;18325;52.018;4.726;2023-04-23T12:35:43;4.83;;;1.20;;
31754;SDS011;18325;52.018;4.726;2023-04-23T12:38:20;3.53;;;1.17;;
31754;SDS011;18325;52.018;4.726;2023-04-23T12:40:50;5.13;;;1.00;;
31754;SDS011;18325;52.018;4.726;2023-04-23T12:43:17;4.87;;;1.30;;
31754;SDS011;18325;52.018;4.726;2023-04-23T12:45:43;3.87;;;1.43;;
31754;SDS011;18325;52.018;4.726;2023-04-23T12:48:10;4.20;;;1.33;;
31754;SDS011;18325;52.018;4.726;2023-04-23T12:50:38;2.40;;;1.00;;
31754;SDS011;18325;52.018;4.726;2023-04-23T12:53:04;3.07;;;1.30;;
31754;SDS011;18325;52.018;4.726;2023-04-23T12:55:31;2.67;;;1.10;;
31754;SDS011;18325;52.018;4.726;2023-04-23T12:57:57;1.97;;;0.97;;
31754;SDS011;18325;52.018;4.726;2023-04-23T13:00:32;3.93;;;1.37;;
31754;SDS011;18325;52.018;4.726;2023-04-23T13:03:04;4.80;;;1.07;;
31754;SDS011;18325;52.018;4.726;2023-04-23T13:08:19;3.57;;;1.50;;
31754;SDS011;18325;52.018;4.726;2023-04-23T13:10:46;4.20;;;1.33;;
31754;SDS011;18325;52.018;4.726;2023-04-23T13:13:14;3.37;;;1.30;;
31754;SDS011;18325;52.018;4.726;2023-04-23T13:15:40;4.83;;;1.37;;
31754;SDS011;18325;52.018;4.726;2023-04-23T13:18:07;4.27;;;1.60;;
31754;SDS011;18325;52.018;4.726;2023-04-23T13:20:33;3.63;;;1.20;;
31754;SDS011;18325;52.018;4.726;2023-04-23T13:23:01;2.53;;;1.20;;
31754;SDS011;18325;52.018;4.726;2023-04-23T13:25:28;3.03;;;1.30;;
31754;SDS011;18325;52.018;4.726;2023-04-23T13:27:54;3.30;;;1.20;;
31754;SDS011;18325;52.018;4.726;2023-04-23T13:30:21;7.90;;;1.50;;
31754;SDS011;18325;52.018;4.726;2023-04-23T13:32:47;2.23;;;1.33;;
31754;SDS011;18325;52.018;4.726;2023-04-23T13:35:14;4.90;;;1.50;;
31754;SDS011;18325;52.018;4.726;2023-04-23T13:37:41;4.67;;;1.90;;
31754;SDS011;18325;52.018;4.726;2023-04-23T13:40:10;3.63;;;1.40;;
31754;SDS011;18325;52.018;4.726;2023-04-23T13:42:37;2.97;;;1.53;;
31754;SDS011;18325;52.018;4.726;2023-04-23T13:45:04;2.37;;;1.30;;
31754;SDS011;18325;52.018;4.726;2023-04-23T13:47:31;3.00;;;1.57;;
31754;SDS011;18325;52.018;4.726;2023-04-23T13:49:58;4.30;;;1.40;;
31754;SDS011;18325;52.018;4.726;2023-04-23T13:52:26;3.10;;;1.40;;
31754;SDS011;18325;52.018;4.726;2023-04-23T13:54:53;3.07;;;1.57;;
31754;SDS011;18325;52.018;4.726;2023-04-23T13:57:22;4.10;;;1.50;;
31754;SDS011;18325;52.018;4.726;2023-04-23T13:59:49;2.00;;;1.20;;
31754;SDS011;18325;52.018;4.726;2023-04-23T14:02:15;2.83;;;1.40;;
31754;SDS011;18325;52.018;4.726;2023-04-23T14:04:42;4.57;;;1.57;;
31754;SDS011;18325;52.018;4.726;2023-04-23T14:07:08;2.33;;;1.60;;
31754;SDS011;18325;52.018;4.726;2023-04-23T14:09:35;2.40;;;1.43;;
31754;SDS011;18325;52.018;4.726;2023-04-23T14:12:02;3.17;;;1.43;;
31754;SDS011;18325;52.018;4.726;2023-04-23T14:14:30;4.67;;;1.90;;
31754;SDS011;18325;52.018;4.726;2023-04-23T14:16:57;3.80;;;1.90;;
31754;SDS011;18325;52.018;4.726;2023-04-23T14:19:23;6.47;;;2.17;;
31754;SDS011;18325;52.018;4.726;2023-04-23T14:21:50;4.20;;;1.90;;
31754;SDS011;18325;52.018;4.726;2023-04-23T14:24:17;6.30;;;1.90;;
31754;SDS011;18325;52.018;4.726;2023-04-23T14:26:47;8.03;;;2.23;;
31754;SDS011;18325;52.018;4.726;2023-04-23T14:29:17;5.07;;;2.50;;
31754;SDS011;18325;52.018;4.726;2023-04-23T14:31:46;4.13;;;2.00;;
31754;SDS011;18325;52.018;4.726;2023-04-23T14:34:12;5.40;;;2.07;;
31754;SDS011;18325;52.018;4.726;2023-04-23T14:36:39;4.90;;;2.97;;
31754;SDS011;18325;52.018;4.726;2023-04-23T14:39:05;8.43;;;2.73;;
31754;SDS011;18325;52.018;4.726;2023-04-23T14:41:32;5.87;;;1.87;;
31754;SDS011;18325;52.018;4.726;2023-04-23T14:44:02;3.33;;;2.13;;